createdAt,value
2023-02-22T00:00:03.232Z,4.93
2023-02-22T00:02:37.705Z,5.40
2023-02-22T00:05:08.184Z,6.43
2023-02-22T00:07:38.571Z,6.57
2023-02-22T00:10:13.441Z,7.18
2023-02-22T00:12:46.837Z,6.90
2023-02-22T00:15:18.196Z,6.75
2023-02-22T00:17:48.199Z,7.18
2023-02-22T00:20:20.219Z,7.20
2023-02-22T00:22:51.764Z,7.03
2023-02-22T00:25:23.242Z,7.03
2023-02-22T00:27:56.332Z,6.70
2023-02-22T00:30:29.083Z,6.93
2023-02-22T00:33:00.549Z,7.28
2023-02-22T00:35:32.784Z,12.23
2023-02-22T00:38:04.172Z,8.68
2023-02-22T00:40:35.661Z,7.82
2023-02-22T00:43:08.904Z,7.85
2023-02-22T00:45:39.970Z,7.30
2023-02-22T00:48:10.824Z,7.90
2023-02-22T00:50:40.846Z,7.25
2023-02-22T00:53:11.980Z,7.10
2023-02-22T00:55:42.389Z,8.75
2023-02-22T00:58:14.916Z,7.95
2023-02-22T01:00:45.844Z,7.78
2023-02-22T01:03:19.549Z,8.05
2023-02-22T01:05:50.325Z,7.10
2023-02-22T01:08:20.750Z,6.28
2023-02-22T01:10:52.655Z,6.32
2023-02-22T01:13:25.268Z,5.88
2023-02-22T01:15:56.763Z,6.43
2023-02-22T01:18:26.768Z,6.63
2023-02-22T01:20:56.959Z,6.50
2023-02-22T01:23:27.204Z,6.68
2023-02-22T01:25:57.402Z,6.47
2023-02-22T01:28:30.132Z,6.85
2023-02-22T01:31:01.753Z,6.80
2023-02-22T01:33:32.085Z,7.07
2023-02-22T01:36:03.837Z,6.60
2023-02-22T01:38:34.309Z,6.35
2023-02-22T01:41:04.556Z,5.90
2023-02-22T01:43:37.473Z,6.20
2023-02-22T01:46:08.989Z,6.57
2023-02-22T01:48:44.583Z,6.53
2023-02-22T01:51:18.149Z,6.28
2023-02-22T01:53:53.258Z,5.68
2023-02-22T01:56:26.029Z,6.40
2023-02-22T01:59:02.150Z,5.60
2023-02-22T02:01:32.864Z,5.35
2023-02-22T02:04:06.707Z,6.07
2023-02-22T02:06:38.755Z,5.75
2023-02-22T02:09:13.580Z,4.82
2023-02-22T02:11:44.700Z,4.95
2023-02-22T02:14:18.079Z,4.18
2023-02-22T02:16:53.357Z,4.45
2023-02-22T02:19:31.154Z,3.83
2023-02-22T02:22:33.040Z,5.05
2023-02-22T02:25:33.148Z,4.07
2023-02-22T02:28:35.262Z,3.75
2023-02-22T02:31:43.398Z,5.15
2023-02-22T02:34:24.269Z,3.42
2023-02-22T02:37:03.638Z,4.15
2023-02-22T02:39:49.983Z,4.28
2023-02-22T02:42:25.873Z,4.43
2023-02-22T02:45:02.698Z,4.40
2023-02-22T02:47:37.167Z,4.22
2023-02-22T02:50:13.508Z,4.93
2023-02-22T02:52:44.923Z,4.60
2023-02-22T02:55:16.173Z,5.05
2023-02-22T02:57:46.408Z,3.90
2023-02-22T03:00:26.121Z,4.18
2023-02-22T03:03:08.332Z,3.00
2023-02-22T03:06:01.935Z,3.53
2023-02-22T03:08:37.411Z,3.50
2023-02-22T03:11:15.553Z,3.72
2023-02-22T03:13:55.950Z,4.15
2023-02-22T03:16:36.743Z,3.88
2023-02-22T03:19:13.794Z,3.63
2023-02-22T03:21:53.127Z,4.15
2023-02-22T03:24:28.415Z,3.53
2023-02-22T03:27:05.018Z,3.22
2023-02-22T03:29:40.438Z,2.78
2023-02-22T03:32:15.034Z,3.15
2023-02-22T03:34:52.767Z,3.40
2023-02-22T03:37:31.704Z,3.20
2023-02-22T03:40:07.241Z,3.58
2023-02-22T03:42:40.896Z,3.53
2023-02-22T03:45:13.543Z,2.78
2023-02-22T03:47:50.378Z,3.08
2023-02-22T03:50:25.437Z,2.80
2023-02-22T03:52:59.582Z,3.15
2023-02-22T03:55:32.344Z,3.58
2023-02-22T03:58:04.948Z,3.30
2023-02-22T04:00:37.354Z,2.90
2023-02-22T04:03:08.213Z,2.80
2023-02-22T04:05:38.599Z,3.25
2023-02-22T04:08:11.168Z,3.33
2023-02-22T04:10:41.150Z,3.35
2023-02-22T04:13:14.707Z,3.80
2023-02-22T04:15:48.498Z,3.95
2023-02-22T04:18:18.894Z,3.92
2023-02-22T04:20:50.844Z,3.90
2023-02-22T04:23:41.863Z,3.33
2023-02-22T04:26:12.288Z,3.30
2023-02-22T04:28:42.784Z,3.28
2023-02-22T04:31:16.987Z,2.58
2023-02-22T04:33:47.307Z,3.37
2023-02-22T04:36:21.780Z,3.37
2023-02-22T04:38:55.197Z,3.67
2023-02-22T04:41:25.694Z,3.97
2023-02-22T04:43:55.949Z,3.40
2023-02-22T04:46:27.938Z,4.23
2023-02-22T04:48:58.701Z,3.78
2023-02-22T04:51:31.879Z,3.90
2023-02-22T04:54:11.086Z,3.08
2023-02-22T04:56:45.839Z,5.03
2023-02-22T04:59:16.117Z,4.23
2023-02-22T05:01:49.025Z,3.85
2023-02-22T05:04:19.336Z,4.33
2023-02-22T05:06:49.648Z,3.55
2023-02-22T05:09:22.759Z,4.35
2023-02-22T05:11:53.086Z,3.93
2023-02-22T05:14:26.757Z,3.53
2023-02-22T05:16:57.925Z,3.63
2023-02-22T05:19:28.180Z,3.92
2023-02-22T05:21:59.177Z,4.10
2023-02-22T05:24:32.322Z,4.18
2023-02-22T05:27:02.583Z,4.70
2023-02-22T05:29:32.845Z,4.17
2023-02-22T05:32:03.290Z,4.43
2023-02-22T05:34:33.679Z,4.20
2023-02-22T05:37:04.002Z,4.57
2023-02-22T05:39:36.867Z,6.40
2023-02-22T05:42:07.280Z,5.63
2023-02-22T05:44:37.782Z,6.23
2023-02-22T05:47:08.036Z,6.63
2023-02-22T05:49:38.277Z,5.97
2023-02-22T05:52:08.812Z,5.33
2023-02-22T05:54:41.757Z,5.70
2023-02-22T05:57:12.041Z,5.73
2023-02-22T05:59:43.329Z,5.57
2023-02-22T06:02:13.659Z,6.77
2023-02-22T06:04:44.019Z,7.30
2023-02-22T06:07:14.400Z,6.90
2023-02-22T06:09:47.364Z,7.30
2023-02-22T06:12:17.708Z,6.80
2023-02-22T06:14:48.303Z,6.45
2023-02-22T06:17:20.597Z,6.90
2023-02-22T06:19:51.031Z,7.45
2023-02-22T06:22:21.962Z,6.78
2023-02-22T06:24:55.209Z,7.37
2023-02-22T06:27:25.661Z,6.65
2023-02-22T06:29:55.944Z,8.38
2023-02-22T06:32:26.387Z,8.55
2023-02-22T06:34:56.922Z,8.27
2023-02-22T06:37:27.217Z,8.80
2023-02-22T06:40:04.811Z,9.65
2023-02-22T06:42:35.641Z,9.65
2023-02-22T06:45:05.946Z,9.40
2023-02-22T06:47:36.283Z,9.68
2023-02-22T06:50:06.841Z,10.00
2023-02-22T06:52:37.130Z,10.48
2023-02-22T06:55:10.177Z,10.40
2023-02-22T06:57:40.405Z,10.35
2023-02-22T07:00:11.498Z,10.75
2023-02-22T07:02:41.773Z,11.90
2023-02-22T07:05:13.334Z,11.00
2023-02-22T07:07:43.629Z,11.35
2023-02-22T07:10:23.192Z,9.93
2023-02-22T07:12:53.836Z,11.18
2023-02-22T07:15:25.205Z,11.18
2023-02-22T07:17:55.831Z,13.63
2023-02-22T07:20:27.209Z,12.02
2023-02-22T07:22:57.543Z,13.52
2023-02-22T07:25:30.519Z,15.23
2023-02-22T07:28:00.931Z,15.35
2023-02-22T07:30:32.521Z,15.38
2023-02-22T07:33:04.832Z,13.57
2023-02-22T07:35:36.843Z,15.10
2023-02-22T07:38:08.270Z,15.60
2023-02-22T07:40:41.763Z,14.63
2023-02-22T07:43:17.444Z,15.07
2023-02-22T07:45:48.576Z,15.10
2023-02-22T07:48:20.168Z,15.88
2023-02-22T07:50:50.790Z,16.27
2023-02-22T07:53:22.224Z,13.70
2023-02-22T07:55:55.403Z,14.73
2023-02-22T07:58:42.147Z,14.68
2023-02-22T08:01:12.173Z,15.45
2023-02-22T08:03:42.678Z,14.65
2023-02-22T08:06:12.677Z,14.63
2023-02-22T08:08:42.948Z,14.65
2023-02-22T08:11:16.228Z,14.90
2023-02-22T08:13:46.749Z,14.33
2023-02-22T08:16:17.000Z,14.15
2023-02-22T08:18:47.017Z,14.32
2023-02-22T08:21:17.336Z,16.15
2023-02-22T08:23:47.559Z,13.40
2023-02-22T08:26:20.904Z,15.70
2023-02-22T08:28:51.894Z,14.07
2023-02-22T08:31:22.142Z,14.50
2023-02-22T08:33:52.619Z,13.80
2023-02-22T08:36:22.894Z,14.50
2023-02-22T08:38:53.438Z,13.85
2023-02-22T08:41:26.018Z,13.23
2023-02-22T08:43:55.986Z,13.18
2023-02-22T08:46:25.980Z,13.55
2023-02-22T08:48:56.750Z,14.43
2023-02-22T08:51:27.996Z,13.90
2023-02-22T08:53:58.002Z,11.85
2023-02-22T08:56:30.556Z,12.82
2023-02-22T08:59:00.483Z,11.40
2023-02-22T09:01:33.492Z,12.45
2023-02-22T09:04:03.779Z,12.13
2023-02-22T09:06:34.071Z,11.05
2023-02-22T09:09:04.186Z,10.98
2023-02-22T09:11:36.756Z,10.88
2023-02-22T09:14:06.713Z,9.93
2023-02-22T09:16:38.401Z,9.52
2023-02-22T09:19:08.480Z,8.75
2023-02-22T09:21:40.274Z,7.85
2023-02-22T09:24:11.070Z,9.05
2023-02-22T09:26:54.224Z,8.25
2023-02-22T09:29:25.456Z,7.80
2023-02-22T09:31:57.322Z,7.40
2023-02-22T09:34:29.791Z,8.60
2023-02-22T09:37:00.351Z,7.47
2023-02-22T09:39:30.413Z,7.22
2023-02-22T09:42:10.441Z,7.82
2023-02-22T09:44:49.035Z,6.85
2023-02-22T09:47:21.933Z,6.95
2023-02-22T09:50:02.458Z,7.30
2023-02-22T09:52:36.483Z,6.63
2023-02-22T09:55:11.940Z,6.22
2023-02-22T09:57:46.818Z,5.72
2023-02-22T10:00:21.613Z,7.10
2023-02-22T10:03:02.500Z,5.95
2023-02-22T10:05:37.730Z,5.72
2023-02-22T10:08:12.816Z,5.53
2023-02-22T10:10:46.079Z,5.70
2023-02-22T10:13:32.936Z,5.53
2023-02-22T10:16:05.851Z,6.10
2023-02-22T10:19:00.207Z,5.25
2023-02-22T10:21:45.334Z,5.43
2023-02-22T10:24:26.349Z,5.13
2023-02-22T10:26:57.490Z,4.38
2023-02-22T10:29:35.406Z,5.05
2023-02-22T10:32:07.685Z,4.15
2023-02-22T10:34:43.930Z,3.50
2023-02-22T10:37:22.561Z,3.83
2023-02-22T10:39:54.983Z,3.50
2023-02-22T10:42:26.243Z,3.58
2023-02-22T10:44:58.880Z,3.85
2023-02-22T10:47:28.887Z,3.58
2023-02-22T10:50:00.568Z,3.30
2023-02-22T10:52:33.961Z,3.80
2023-02-22T10:55:15.612Z,2.97
2023-02-22T10:57:48.154Z,3.35
2023-02-22T11:00:26.445Z,3.20
2023-02-22T11:02:59.726Z,2.67
2023-02-22T11:05:36.938Z,3.10
2023-02-22T11:08:30.797Z,3.63
2023-02-22T11:11:04.862Z,3.30
2023-02-22T11:13:36.637Z,3.15
2023-02-22T11:16:22.235Z,2.88
2023-02-22T11:18:52.359Z,2.78
2023-02-22T11:21:25.621Z,2.83
2023-02-22T11:24:04.982Z,2.65
2023-02-22T11:26:43.804Z,2.78
2023-02-22T11:29:16.717Z,2.72
2023-02-22T11:31:51.946Z,2.47
2023-02-22T11:34:34.414Z,2.17
2023-02-22T11:37:32.875Z,2.30
2023-02-22T11:40:22.288Z,2.70
2023-02-22T11:43:09.852Z,2.03
2023-02-22T11:45:44.227Z,1.88
2023-02-22T11:48:23.802Z,2.00
2023-02-22T11:51:06.516Z,2.20
2023-02-22T11:53:50.425Z,2.10
2023-02-22T11:56:36.971Z,2.20
2023-02-22T11:59:18.203Z,2.53
2023-02-22T12:01:55.088Z,1.88
2023-02-22T12:04:52.541Z,2.00
2023-02-22T12:07:48.657Z,1.75
2023-02-22T12:10:26.251Z,2.22
2023-02-22T12:13:13.200Z,1.75
2023-02-22T12:15:50.610Z,1.77
2023-02-22T12:18:29.397Z,1.65
2023-02-22T12:21:05.699Z,1.30
2023-02-22T12:23:50.768Z,1.58
2023-02-22T12:26:27.826Z,1.98
2023-02-22T12:29:01.571Z,1.83
2023-02-22T12:31:35.155Z,1.50
2023-02-22T12:34:11.967Z,1.58
2023-02-22T12:36:49.415Z,1.00
2023-02-22T12:39:40.937Z,2.03
2023-02-22T12:42:20.830Z,1.40
2023-02-22T12:44:57.856Z,1.45
2023-02-22T12:47:37.133Z,0.95
2023-02-22T12:50:16.015Z,0.93
2023-02-22T12:52:53.151Z,0.70
2023-02-22T12:55:26.478Z,1.10
2023-02-22T12:58:03.808Z,1.10
2023-02-22T13:00:42.018Z,0.95
2023-02-22T13:03:30.538Z,0.93
2023-02-22T13:06:14.142Z,0.82
2023-02-22T13:08:57.032Z,0.80
2023-02-22T13:11:34.678Z,0.65
2023-02-22T13:14:17.066Z,0.98
2023-02-22T13:16:54.419Z,1.23
2023-02-22T13:19:35.967Z,1.08
2023-02-22T13:22:11.036Z,1.40
2023-02-22T13:24:51.499Z,1.23
2023-02-22T13:27:26.315Z,1.08
2023-02-22T13:30:01.512Z,1.15
2023-02-22T13:32:45.318Z,0.82
2023-02-22T13:35:30.144Z,1.35
2023-02-22T13:38:21.632Z,1.33
2023-02-22T13:41:12.940Z,1.90
2023-02-22T13:44:04.228Z,1.63
2023-02-22T13:47:04.602Z,0.98
2023-02-22T13:49:50.192Z,0.77
2023-02-22T13:52:23.910Z,0.60
2023-02-22T13:54:56.092Z,0.65
2023-02-22T13:57:31.616Z,0.90
2023-02-22T14:00:26.727Z,0.75
2023-02-22T14:03:03.838Z,0.68
2023-02-22T14:05:53.836Z,0.88
2023-02-22T14:08:50.908Z,0.35
2023-02-22T14:11:45.797Z,1.30
2023-02-22T14:14:22.413Z,0.50
2023-02-22T14:17:27.152Z,0.77
2023-02-22T14:20:14.825Z,0.70
2023-02-22T14:22:47.929Z,0.50
2023-02-22T14:25:40.437Z,1.25
2023-02-22T14:28:12.776Z,1.75
2023-02-22T14:30:45.378Z,0.93
2023-02-22T14:33:54.094Z,0.95
2023-02-22T14:36:25.962Z,1.42
2023-02-22T14:39:00.897Z,1.15
2023-02-22T14:41:34.318Z,1.10
2023-02-22T14:44:07.356Z,1.45
2023-02-22T14:46:42.677Z,1.67
2023-02-22T14:49:19.026Z,1.95
2023-02-22T14:51:57.370Z,1.60
2023-02-22T14:54:33.242Z,1.23
2023-02-22T14:57:15.281Z,0.80
2023-02-22T15:00:10.664Z,0.75
2023-02-22T15:02:44.229Z,0.90
2023-02-22T15:05:16.693Z,1.00
2023-02-22T15:07:54.831Z,0.88
2023-02-22T15:10:33.245Z,1.35
2023-02-22T15:13:12.720Z,1.25
2023-02-22T15:15:49.194Z,0.77
2023-02-22T15:18:30.204Z,0.63
2023-02-22T15:21:07.082Z,0.68
2023-02-22T15:23:44.686Z,0.73
2023-02-22T15:26:23.201Z,0.80
2023-02-22T15:28:57.334Z,1.00
2023-02-22T15:31:32.071Z,0.60
2023-02-22T15:34:13.605Z,0.90
2023-02-22T15:36:44.824Z,0.57
2023-02-22T15:39:25.597Z,0.68
2023-02-22T15:42:07.977Z,0.35
2023-02-22T15:44:40.354Z,0.63
2023-02-22T15:47:14.353Z,1.02
2023-02-22T15:49:47.135Z,0.70
2023-02-22T15:52:23.754Z,0.75
2023-02-22T15:54:54.867Z,0.70
2023-02-22T15:57:29.800Z,0.40
2023-02-22T16:00:00.815Z,0.50
2023-02-22T16:02:37.076Z,0.60
2023-02-22T16:05:13.048Z,0.45
2023-02-22T16:07:47.361Z,0.73
2023-02-22T16:10:29.918Z,0.47
2023-02-22T16:13:19.055Z,1.00
2023-02-22T16:16:01.958Z,0.82
2023-02-22T16:18:35.412Z,0.70
2023-02-22T16:21:13.197Z,1.13
2023-02-22T16:23:48.424Z,0.40
2023-02-22T16:26:24.330Z,0.65
2023-02-22T16:28:56.857Z,0.95
2023-02-22T16:31:28.993Z,0.90
2023-02-22T16:33:59.004Z,0.88
2023-02-22T16:36:43.827Z,0.82
2023-02-22T16:39:19.093Z,0.95
2023-02-22T16:41:49.182Z,1.20
2023-02-22T16:44:19.469Z,1.25
2023-02-22T16:46:49.546Z,0.90
2023-02-22T16:49:20.520Z,1.20
2023-02-22T16:51:56.239Z,1.50
2023-02-22T16:54:30.845Z,1.35
2023-02-22T16:57:03.964Z,1.25
2023-02-22T16:59:35.679Z,1.40
2023-02-22T17:02:07.673Z,1.17
2023-02-22T17:04:37.824Z,1.40
2023-02-22T17:07:10.426Z,1.70
2023-02-22T17:09:40.431Z,1.23
2023-02-22T17:12:10.930Z,1.85
2023-02-22T17:14:41.487Z,2.10
2023-02-22T17:17:13.817Z,2.15
2023-02-22T17:19:43.877Z,2.47
2023-02-22T17:22:23.319Z,2.13
2023-02-22T17:24:53.703Z,3.35
2023-02-22T17:27:24.056Z,5.55
2023-02-22T17:29:54.219Z,6.38
2023-02-22T17:32:24.221Z,5.03
2023-02-22T17:34:54.208Z,5.13
2023-02-22T17:37:27.050Z,4.22
2023-02-22T17:39:57.419Z,3.92
2023-02-22T17:42:27.600Z,3.28
2023-02-22T17:44:57.875Z,3.40
2023-02-22T17:47:28.451Z,2.58
2023-02-22T17:49:58.562Z,2.15
2023-02-22T17:52:31.160Z,1.98
2023-02-22T17:55:01.388Z,2.30
2023-02-22T17:57:31.886Z,2.00
2023-02-22T18:00:12.351Z,1.90
2023-02-22T18:02:46.276Z,1.95
2023-02-22T18:05:17.876Z,2.10
2023-02-22T18:07:50.494Z,1.40
2023-02-22T18:10:21.036Z,1.90
2023-02-22T18:12:53.405Z,1.70
2023-02-22T18:15:28.282Z,1.90
2023-02-22T18:17:59.448Z,2.47
2023-02-22T18:20:31.226Z,1.95
2023-02-22T18:23:03.933Z,2.03
2023-02-22T18:25:33.960Z,1.95
2023-02-22T18:28:04.769Z,2.15
2023-02-22T18:30:35.918Z,2.00
2023-02-22T18:33:07.175Z,2.28
2023-02-22T18:35:37.515Z,3.35
2023-02-22T18:38:14.429Z,2.75
2023-02-22T18:40:47.034Z,4.00
2023-02-22T18:43:16.993Z,7.40
2023-02-22T18:45:47.103Z,4.72
2023-02-22T18:48:17.332Z,4.75
2023-02-22T18:50:47.573Z,10.35
2023-02-22T18:53:20.124Z,11.35
2023-02-22T18:55:50.410Z,16.30
2023-02-22T18:58:20.425Z,13.65
2023-02-22T19:00:51.481Z,15.43
2023-02-22T19:03:21.453Z,24.13
2023-02-22T19:05:52.315Z,38.42
2023-02-22T19:08:25.188Z,27.52
2023-02-22T19:10:55.442Z,12.27
2023-02-22T19:13:25.457Z,8.07
2023-02-22T19:15:55.575Z,3.75
2023-02-22T19:18:25.562Z,21.70
2023-02-22T19:20:58.903Z,11.32
2023-02-22T19:23:34.518Z,5.80
2023-02-22T19:26:09.435Z,5.10
2023-02-22T19:28:39.794Z,6.13
2023-02-22T19:31:15.444Z,10.23
2023-02-22T19:33:46.108Z,14.80
2023-02-22T19:36:17.164Z,16.80
2023-02-22T19:38:49.881Z,12.55
2023-02-22T19:41:22.383Z,9.25
2023-02-22T19:43:55.835Z,8.30
2023-02-22T19:46:27.481Z,8.57
2023-02-22T19:48:58.149Z,7.22
2023-02-22T19:51:30.884Z,7.72
2023-02-22T19:54:05.191Z,6.93
2023-02-22T19:59:12.781Z,7.70
2023-02-22T20:01:44.809Z,8.15
2023-02-22T20:04:18.264Z,9.20
2023-02-22T20:06:50.107Z,7.97
2023-02-22T20:09:29.976Z,7.68
2023-02-22T20:12:00.326Z,6.70
2023-02-22T20:14:30.977Z,6.00
2023-02-22T20:17:01.833Z,6.50
2023-02-22T20:19:32.013Z,11.00
2023-02-22T20:22:02.869Z,7.95
2023-02-22T20:24:35.502Z,7.90
2023-02-22T20:27:05.482Z,7.28
2023-02-22T20:29:35.818Z,7.45
2023-02-22T20:32:07.553Z,7.28
2023-02-22T20:34:37.720Z,7.25
2023-02-22T20:37:07.987Z,4.45
2023-02-22T20:39:40.548Z,3.92
2023-02-22T20:42:11.707Z,3.75
2023-02-22T20:44:42.885Z,2.58
2023-02-22T20:47:12.961Z,3.47
2023-02-22T20:49:42.990Z,2.90
2023-02-22T20:52:13.037Z,2.05
2023-02-22T20:54:45.784Z,2.60
2023-02-22T20:57:16.141Z,2.40
2023-02-22T20:59:46.352Z,2.53
2023-02-22T21:02:16.447Z,2.55
2023-02-22T21:04:46.590Z,2.03
2023-02-22T21:07:16.775Z,1.92
2023-02-22T21:09:49.465Z,2.13
2023-02-22T21:12:19.582Z,2.45
2023-02-22T21:14:49.737Z,2.67
2023-02-22T21:17:28.747Z,2.05
2023-02-22T21:19:58.770Z,1.95
2023-02-22T21:22:29.179Z,2.42
2023-02-22T21:25:01.684Z,2.28
2023-02-22T21:27:31.683Z,2.03
2023-02-22T21:30:01.684Z,2.67
2023-02-22T21:32:32.947Z,2.58
2023-02-22T21:35:02.931Z,2.38
2023-02-22T21:37:34.053Z,2.22
2023-02-22T21:40:11.489Z,2.47
2023-02-22T21:42:41.490Z,2.10
2023-02-22T21:45:14.340Z,2.38
2023-02-22T21:47:46.337Z,2.00
2023-02-22T21:50:16.952Z,1.90
2023-02-22T21:52:47.236Z,2.13
2023-02-22T21:55:20.844Z,2.53
2023-02-22T21:57:50.767Z,2.17
2023-02-22T22:00:29.317Z,2.13
2023-02-22T22:03:05.891Z,2.33
2023-02-22T22:05:36.181Z,2.20
2023-02-22T22:08:07.566Z,2.58
2023-02-22T22:10:40.092Z,2.25
2023-02-22T22:13:10.085Z,2.25
2023-02-22T22:15:40.714Z,2.40
2023-02-22T22:18:11.747Z,2.72
2023-02-22T22:20:42.890Z,2.72
2023-02-22T22:23:13.298Z,4.40
2023-02-22T22:25:46.131Z,4.65
2023-02-22T22:28:16.141Z,6.10
2023-02-22T22:30:46.266Z,4.40
2023-02-22T22:33:17.769Z,3.30
2023-02-22T22:35:47.729Z,3.67
2023-02-22T22:38:17.693Z,3.40
2023-02-22T22:40:53.011Z,3.33
2023-02-22T22:43:23.080Z,3.30
2023-02-22T22:45:53.102Z,2.95
2023-02-22T22:48:25.722Z,3.50
2023-02-22T22:51:02.563Z,3.65
2023-02-22T22:53:34.026Z,3.25
2023-02-22T22:56:14.186Z,3.00
2023-02-22T22:58:45.874Z,3.15
2023-02-22T23:01:20.386Z,2.50
2023-02-22T23:03:55.316Z,3.45
2023-02-22T23:06:30.948Z,3.25
2023-02-22T23:09:10.203Z,3.28
2023-02-22T23:11:46.417Z,4.20
2023-02-22T23:14:19.645Z,3.22
2023-02-22T23:16:50.127Z,3.50
2023-02-22T23:19:20.464Z,3.33
2023-02-22T23:21:52.209Z,3.47
2023-02-22T23:24:26.927Z,2.75
2023-02-22T23:27:00.835Z,3.05
2023-02-22T23:29:32.318Z,3.10
2023-02-22T23:32:02.683Z,3.35
2023-02-22T23:34:32.706Z,3.58
2023-02-22T23:37:03.358Z,3.58
2023-02-22T23:39:33.363Z,2.90
2023-02-22T23:42:08.791Z,3.63
2023-02-22T23:44:40.257Z,4.20
2023-02-22T23:47:10.267Z,3.42
2023-02-22T23:49:43.464Z,3.85
2023-02-22T23:52:24.299Z,3.00
2023-02-22T23:54:55.044Z,3.80
2023-02-22T23:57:27.550Z,3.58
2023-02-22T23:59:57.567Z,3.50
